sensor_id;sensor_type;location;lat;lon;timestamp;P1;durP1;ratioP1;P2;durP2;ratioP2
22318;SDS011;11327;52.334;9.506;2024-02-14T00:01:06;3.98;;;1.60;;
22318;SDS011;11327;52.334;9.506;2024-02-14T00:04:29;3.60;;;1.82;;
22318;SDS011;11327;52.334;9.506;2024-02-14T00:07:50;4.05;;;1.57;;
22318;SDS011;11327;52.334;9.506;2024-02-14T00:11:11;2.77;;;1.80;;
22318;SDS011;11327;52.334;9.506;2024-02-14T00:14:32;3.50;;;1.77;;
22318;SDS011;11327;52.334;9.506;2024-02-14T00:17:52;3.87;;;1.70;;
22318;SDS011;11327;52.334;9.506;2024-02-14T00:21:13;3.80;;;1.70;;
22318;SDS011;11327;52.334;9.506;2024-02-14T00:24:34;2.92;;;1.80;;
22318;SDS011;11327;52.334;9.506;2024-02-14T00:27:56;3.52;;;2.08;;
22318;SDS011;11327;52.334;9.506;2024-02-14T00:31:17;4.53;;;2.12;;
22318;SDS011;11327;52.334;9.506;2024-02-14T00:34:37;4.47;;;2.08;;
22318;SDS011;11327;52.334;9.506;2024-02-14T00:37:58;3.17;;;2.25;;
22318;SDS011;11327;52.334;9.506;2024-02-14T00:41:19;3.50;;;2.00;;
22318;SDS011;11327;52.334;9.506;2024-02-14T00:44:39;3.80;;;2.00;;
22318;SDS011;11327;52.334;9.506;2024-02-14T00:48:01;4.65;;;2.35;;
22318;SDS011;11327;52.334;9.506;2024-02-14T00:51:22;3.95;;;2.35;;
22318;SDS011;11327;52.334;9.506;2024-02-14T00:54:42;4.12;;;2.10;;
22318;SDS011;11327;52.334;9.506;2024-02-14T00:58:03;5.58;;;2.55;;
22318;SDS011;11327;52.334;9.506;2024-02-14T01:01:24;4.62;;;2.47;;
22318;SDS011;11327;52.334;9.506;2024-02-14T01:04:45;6.80;;;2.30;;
22318;SDS011;11327;52.334;9.506;2024-02-14T01:08:06;4.35;;;2.37;;
22318;SDS011;11327;52.334;9.506;2024-02-14T01:11:27;4.80;;;2.40;;
22318;SDS011;11327;52.334;9.506;2024-02-14T01:14:48;3.60;;;2.08;;
22318;SDS011;11327;52.334;9.506;2024-02-14T01:18:09;4.65;;;2.22;;
22318;SDS011;11327;52.334;9.506;2024-02-14T01:21:30;4.42;;;1.98;;
22318;SDS011;11327;52.334;9.506;2024-02-14T01:24:51;4.08;;;2.15;;
22318;SDS011;11327;52.334;9.506;2024-02-14T01:28:11;4.40;;;2.10;;
22318;SDS011;11327;52.334;9.506;2024-02-14T01:31:32;3.08;;;1.87;;
22318;SDS011;11327;52.334;9.506;2024-02-14T01:34:54;5.95;;;2.10;;
22318;SDS011;11327;52.334;9.506;2024-02-14T01:38:15;5.90;;;2.33;;
22318;SDS011;11327;52.334;9.506;2024-02-14T01:41:35;4.00;;;2.60;;
22318;SDS011;11327;52.334;9.506;2024-02-14T01:44:56;3.90;;;2.20;;
22318;SDS011;11327;52.334;9.506;2024-02-14T01:48:17;3.98;;;1.95;;
22318;SDS011;11327;52.334;9.506;2024-02-14T01:51:39;4.72;;;2.08;;
22318;SDS011;11327;52.334;9.506;2024-02-14T01:55:02;3.30;;;2.17;;
22318;SDS011;11327;52.334;9.506;2024-02-14T01:58:26;3.85;;;2.05;;
22318;SDS011;11327;52.334;9.506;2024-02-14T02:01:47;4.72;;;2.20;;
22318;SDS011;11327;52.334;9.506;2024-02-14T02:05:08;4.42;;;2.35;;
22318;SDS011;11327;52.334;9.506;2024-02-14T02:08:29;3.67;;;2.12;;
22318;SDS011;11327;52.334;9.506;2024-02-14T02:11:50;4.28;;;2.37;;
22318;SDS011;11327;52.334;9.506;2024-02-14T02:15:16;4.83;;;2.73;;
22318;SDS011;11327;52.334;9.506;2024-02-14T02:18:38;3.70;;;2.30;;
22318;SDS011;11327;52.334;9.506;2024-02-14T02:21:58;6.22;;;3.00;;
22318;SDS011;11327;52.334;9.506;2024-02-14T02:25:19;5.53;;;3.02;;
22318;SDS011;11327;52.334;9.506;2024-02-14T02:28:42;4.58;;;3.22;;
22318;SDS011;11327;52.334;9.506;2024-02-14T02:32:03;5.65;;;3.10;;
22318;SDS011;11327;52.334;9.506;2024-02-14T02:35:26;5.75;;;3.10;;
22318;SDS011;11327;52.334;9.506;2024-02-14T02:38:46;6.17;;;3.50;;
22318;SDS011;11327;52.334;9.506;2024-02-14T02:42:07;5.75;;;3.08;;
22318;SDS011;11327;52.334;9.506;2024-02-14T02:45:28;5.67;;;3.40;;
22318;SDS011;11327;52.334;9.506;2024-02-14T02:48:49;5.78;;;3.30;;
22318;SDS011;11327;52.334;9.506;2024-02-14T02:52:10;5.70;;;3.30;;
22318;SDS011;11327;52.334;9.506;2024-02-14T02:55:31;6.83;;;3.90;;
22318;SDS011;11327;52.334;9.506;2024-02-14T02:58:53;8.35;;;3.67;;
22318;SDS011;11327;52.334;9.506;2024-02-14T03:02:15;5.40;;;3.12;;
22318;SDS011;11327;52.334;9.506;2024-02-14T03:05:36;7.00;;;3.17;;
22318;SDS011;11327;52.334;9.506;2024-02-14T03:08:56;8.08;;;3.42;;
22318;SDS011;11327;52.334;9.506;2024-02-14T03:12:18;6.12;;;3.35;;
22318;SDS011;11327;52.334;9.506;2024-02-14T03:15:39;7.10;;;3.72;;
22318;SDS011;11327;52.334;9.506;2024-02-14T03:19:00;5.28;;;3.00;;
22318;SDS011;11327;52.334;9.506;2024-02-14T03:22:21;11.08;;;3.40;;
22318;SDS011;11327;52.334;9.506;2024-02-14T03:25:41;5.30;;;3.22;;
22318;SDS011;11327;52.334;9.506;2024-02-14T03:29:02;5.22;;;3.12;;
22318;SDS011;11327;52.334;9.506;2024-02-14T03:32:25;6.53;;;3.47;;
22318;SDS011;11327;52.334;9.506;2024-02-14T03:35:46;7.97;;;3.42;;
22318;SDS011;11327;52.334;9.506;2024-02-14T03:39:08;5.08;;;3.40;;
22318;SDS011;11327;52.334;9.506;2024-02-14T03:42:28;6.97;;;3.22;;
22318;SDS011;11327;52.334;9.506;2024-02-14T03:45:49;7.40;;;3.58;;
22318;SDS011;11327;52.334;9.506;2024-02-14T03:49:12;5.72;;;3.20;;
22318;SDS011;11327;52.334;9.506;2024-02-14T03:52:32;6.40;;;3.47;;
22318;SDS011;11327;52.334;9.506;2024-02-14T03:55:53;5.55;;;3.20;;
22318;SDS011;11327;52.334;9.506;2024-02-14T03:59:14;5.25;;;2.85;;
22318;SDS011;11327;52.334;9.506;2024-02-14T04:02:35;6.30;;;3.12;;
22318;SDS011;11327;52.334;9.506;2024-02-14T04:05:56;5.25;;;3.40;;
22318;SDS011;11327;52.334;9.506;2024-02-14T04:09:17;4.12;;;2.75;;
22318;SDS011;11327;52.334;9.506;2024-02-14T04:12:38;6.55;;;3.08;;
22318;SDS011;11327;52.334;9.506;2024-02-14T04:15:58;7.80;;;3.00;;
22318;SDS011;11327;52.334;9.506;2024-02-14T04:19:19;5.08;;;2.92;;
22318;SDS011;11327;52.334;9.506;2024-02-14T04:22:40;5.47;;;3.20;;
22318;SDS011;11327;52.334;9.506;2024-02-14T04:26:00;4.75;;;2.80;;
22318;SDS011;11327;52.334;9.506;2024-02-14T04:29:21;6.87;;;3.10;;
22318;SDS011;11327;52.334;9.506;2024-02-14T04:32:42;8.20;;;3.65;;
22318;SDS011;11327;52.334;9.506;2024-02-14T04:36:04;5.10;;;3.30;;
22318;SDS011;11327;52.334;9.506;2024-02-14T04:39:26;6.10;;;3.08;;
22318;SDS011;11327;52.334;9.506;2024-02-14T04:42:47;5.00;;;3.17;;
22318;SDS011;11327;52.334;9.506;2024-02-14T04:46:08;5.97;;;3.30;;
22318;SDS011;11327;52.334;9.506;2024-02-14T04:49:28;5.67;;;3.50;;
22318;SDS011;11327;52.334;9.506;2024-02-14T04:52:49;6.10;;;3.20;;
22318;SDS011;11327;52.334;9.506;2024-02-14T04:56:10;7.28;;;3.47;;
22318;SDS011;11327;52.334;9.506;2024-02-14T04:59:30;8.53;;;4.20;;
22318;SDS011;11327;52.334;9.506;2024-02-14T05:02:51;6.70;;;3.62;;
22318;SDS011;11327;52.334;9.506;2024-02-14T05:06:12;5.47;;;3.70;;
22318;SDS011;11327;52.334;9.506;2024-02-14T05:09:33;7.03;;;3.67;;
22318;SDS011;11327;52.334;9.506;2024-02-14T05:12:54;7.87;;;3.77;;
22318;SDS011;11327;52.334;9.506;2024-02-14T05:16:18;5.15;;;3.65;;
22318;SDS011;11327;52.334;9.506;2024-02-14T05:19:41;5.28;;;3.47;;
22318;SDS011;11327;52.334;9.506;2024-02-14T05:23:03;5.92;;;3.77;;
22318;SDS011;11327;52.334;9.506;2024-02-14T05:26:24;6.60;;;3.70;;
22318;SDS011;11327;52.334;9.506;2024-02-14T05:29:44;5.05;;;3.37;;
22318;SDS011;11327;52.334;9.506;2024-02-14T05:33:05;4.83;;;3.25;;
22318;SDS011;11327;52.334;9.506;2024-02-14T05:36:26;5.17;;;3.30;;
22318;SDS011;11327;52.334;9.506;2024-02-14T05:39:46;5.45;;;3.75;;
22318;SDS011;11327;52.334;9.506;2024-02-14T05:43:07;5.15;;;3.40;;
22318;SDS011;11327;52.334;9.506;2024-02-14T05:46:28;4.03;;;3.17;;
22318;SDS011;11327;52.334;9.506;2024-02-14T05:49:49;5.83;;;2.95;;
22318;SDS011;11327;52.334;9.506;2024-02-14T05:53:09;5.67;;;3.33;;
22318;SDS011;11327;52.334;9.506;2024-02-14T05:56:30;4.47;;;3.10;;
22318;SDS011;11327;52.334;9.506;2024-02-14T05:59:51;5.33;;;2.90;;
22318;SDS011;11327;52.334;9.506;2024-02-14T06:03:11;4.12;;;2.80;;
22318;SDS011;11327;52.334;9.506;2024-02-14T06:06:32;4.62;;;2.40;;
22318;SDS011;11327;52.334;9.506;2024-02-14T06:09:53;3.00;;;2.35;;
22318;SDS011;11327;52.334;9.506;2024-02-14T06:13:14;4.10;;;2.52;;
22318;SDS011;11327;52.334;9.506;2024-02-14T06:16:34;4.47;;;2.90;;
22318;SDS011;11327;52.334;9.506;2024-02-14T06:19:55;3.90;;;2.67;;
22318;SDS011;11327;52.334;9.506;2024-02-14T06:23:17;4.58;;;2.60;;
22318;SDS011;11327;52.334;9.506;2024-02-14T06:26:38;3.20;;;2.70;;
22318;SDS011;11327;52.334;9.506;2024-02-14T06:29:59;4.62;;;2.72;;
22318;SDS011;11327;52.334;9.506;2024-02-14T06:33:20;4.92;;;2.52;;
22318;SDS011;11327;52.334;9.506;2024-02-14T06:36:40;4.05;;;2.65;;
22318;SDS011;11327;52.334;9.506;2024-02-14T06:40:01;4.20;;;2.42;;
22318;SDS011;11327;52.334;9.506;2024-02-14T06:43:22;3.75;;;2.30;;
22318;SDS011;11327;52.334;9.506;2024-02-14T06:46:43;2.77;;;2.00;;
22318;SDS011;11327;52.334;9.506;2024-02-14T06:50:04;3.50;;;2.10;;
22318;SDS011;11327;52.334;9.506;2024-02-14T06:53:26;3.17;;;2.22;;
22318;SDS011;11327;52.334;9.506;2024-02-14T06:56:47;3.15;;;2.08;;
22318;SDS011;11327;52.334;9.506;2024-02-14T07:00:08;2.40;;;1.70;;
22318;SDS011;11327;52.334;9.506;2024-02-14T07:03:30;2.35;;;1.62;;
22318;SDS011;11327;52.334;9.506;2024-02-14T07:06:53;2.20;;;1.75;;
22318;SDS011;11327;52.334;9.506;2024-02-14T07:10:14;2.52;;;1.62;;
22318;SDS011;11327;52.334;9.506;2024-02-14T07:13:34;3.70;;;2.65;;
22318;SDS011;11327;52.334;9.506;2024-02-14T07:16:55;2.22;;;1.80;;
22318;SDS011;11327;52.334;9.506;2024-02-14T07:20:16;2.15;;;1.75;;
22318;SDS011;11327;52.334;9.506;2024-02-14T07:23:38;2.33;;;1.82;;
22318;SDS011;11327;52.334;9.506;2024-02-14T07:26:59;3.20;;;1.77;;
22318;SDS011;11327;52.334;9.506;2024-02-14T07:30:19;2.33;;;1.50;;
22318;SDS011;11327;52.334;9.506;2024-02-14T07:33:40;2.75;;;1.60;;
22318;SDS011;11327;52.334;9.506;2024-02-14T07:37:01;3.83;;;1.65;;
22318;SDS011;11327;52.334;9.506;2024-02-14T07:40:22;3.85;;;1.65;;
22318;SDS011;11327;52.334;9.506;2024-02-14T07:43:43;2.20;;;1.60;;
22318;SDS011;11327;52.334;9.506;2024-02-14T07:47:03;2.40;;;1.15;;
22318;SDS011;11327;52.334;9.506;2024-02-14T07:50:24;1.47;;;1.10;;
22318;SDS011;11327;52.334;9.506;2024-02-14T07:53:45;1.82;;;1.17;;
22318;SDS011;11327;52.334;9.506;2024-02-14T07:57:06;1.98;;;1.12;;
22318;SDS011;11327;52.334;9.506;2024-02-14T08:00:28;1.55;;;1.20;;
22318;SDS011;11327;52.334;9.506;2024-02-14T08:03:49;2.17;;;1.10;;
22318;SDS011;11327;52.334;9.506;2024-02-14T08:07:10;1.10;;;1.00;;
22318;SDS011;11327;52.334;9.506;2024-02-14T08:10:30;1.90;;;1.10;;
22318;SDS011;11327;52.334;9.506;2024-02-14T08:13:52;1.80;;;1.30;;
22318;SDS011;11327;52.334;9.506;2024-02-14T08:17:13;2.05;;;1.65;;
22318;SDS011;11327;52.334;9.506;2024-02-14T08:20:34;2.00;;;1.60;;
22318;SDS011;11327;52.334;9.506;2024-02-14T08:23:55;1.95;;;1.60;;
22318;SDS011;11327;52.334;9.506;2024-02-14T08:27:16;2.15;;;1.75;;
22318;SDS011;11327;52.334;9.506;2024-02-14T08:30:36;2.27;;;1.87;;
22318;SDS011;11327;52.334;9.506;2024-02-14T08:33:58;2.72;;;2.30;;
22318;SDS011;11327;52.334;9.506;2024-02-14T08:37:19;3.20;;;2.40;;
22318;SDS011;11327;52.334;9.506;2024-02-14T08:40:39;3.75;;;2.90;;
22318;SDS011;11327;52.334;9.506;2024-02-14T08:44:00;4.50;;;3.60;;
22318;SDS011;11327;52.334;9.506;2024-02-14T08:47:21;6.00;;;4.53;;
22318;SDS011;11327;52.334;9.506;2024-02-14T08:50:42;7.25;;;5.20;;
22318;SDS011;11327;52.334;9.506;2024-02-14T08:54:07;8.50;;;5.77;;
22318;SDS011;11327;52.334;9.506;2024-02-14T08:57:26;7.67;;;6.30;;
22318;SDS011;11327;52.334;9.506;2024-02-14T09:00:47;8.33;;;6.70;;
22318;SDS011;11327;52.334;9.506;2024-02-14T09:04:09;8.80;;;6.93;;
22318;SDS011;11327;52.334;9.506;2024-02-14T09:07:29;9.30;;;7.17;;
22318;SDS011;11327;52.334;9.506;2024-02-14T09:10:51;8.97;;;6.87;;
22318;SDS011;11327;52.334;9.506;2024-02-14T09:14:12;8.60;;;7.15;;
22318;SDS011;11327;52.334;9.506;2024-02-14T09:17:33;9.55;;;7.80;;
22318;SDS011;11327;52.334;9.506;2024-02-14T09:20:54;10.20;;;7.25;;
22318;SDS011;11327;52.334;9.506;2024-02-14T09:24:14;8.70;;;7.15;;
22318;SDS011;11327;52.334;9.506;2024-02-14T09:27:35;10.30;;;7.55;;
22318;SDS011;11327;52.334;9.506;2024-02-14T09:30:56;10.82;;;8.38;;
22318;SDS011;11327;52.334;9.506;2024-02-14T09:34:17;10.60;;;8.45;;
22318;SDS011;11327;52.334;9.506;2024-02-14T09:41:05;9.00;;;7.73;;
22318;SDS011;11327;52.334;9.506;2024-02-14T09:44:34;9.20;;;8.00;;
22318;SDS011;11327;52.334;9.506;2024-02-14T09:47:56;9.50;;;7.70;;
22318;SDS011;11327;52.334;9.506;2024-02-14T09:51:17;9.55;;;7.30;;
22318;SDS011;11327;52.334;9.506;2024-02-14T09:54:38;8.60;;;7.33;;
22318;SDS011;11327;52.334;9.506;2024-02-14T09:57:59;8.58;;;7.20;;
22318;SDS011;11327;52.334;9.506;2024-02-14T10:01:22;7.75;;;6.83;;
22318;SDS011;11327;52.334;9.506;2024-02-14T10:04:44;7.42;;;6.53;;
22318;SDS011;11327;52.334;9.506;2024-02-14T10:08:05;7.60;;;6.67;;
22318;SDS011;11327;52.334;9.506;2024-02-14T10:11:27;8.90;;;6.17;;
22318;SDS011;11327;52.334;9.506;2024-02-14T10:14:47;7.40;;;6.12;;
22318;SDS011;11327;52.334;9.506;2024-02-14T10:18:08;6.62;;;5.30;;
22318;SDS011;11327;52.334;9.506;2024-02-14T10:21:29;5.55;;;5.05;;
22318;SDS011;11327;52.334;9.506;2024-02-14T10:24:52;6.00;;;5.35;;
22318;SDS011;11327;52.334;9.506;2024-02-14T10:28:13;7.17;;;5.47;;
22318;SDS011;11327;52.334;9.506;2024-02-14T10:31:33;6.42;;;5.10;;
22318;SDS011;11327;52.334;9.506;2024-02-14T10:34:54;5.70;;;5.10;;
22318;SDS011;11327;52.334;9.506;2024-02-14T10:38:15;7.47;;;5.47;;
22318;SDS011;11327;52.334;9.506;2024-02-14T10:41:38;6.55;;;5.03;;
22318;SDS011;11327;52.334;9.506;2024-02-14T10:44:59;6.47;;;5.58;;
22318;SDS011;11327;52.334;9.506;2024-02-14T10:48:22;7.85;;;5.97;;
22318;SDS011;11327;52.334;9.506;2024-02-14T10:51:45;7.25;;;6.35;;
22318;SDS011;11327;52.334;9.506;2024-02-14T10:55:09;7.53;;;5.65;;
22318;SDS011;11327;52.334;9.506;2024-02-14T10:58:32;6.90;;;5.65;;
22318;SDS011;11327;52.334;9.506;2024-02-14T11:01:55;6.12;;;5.53;;
22318;SDS011;11327;52.334;9.506;2024-02-14T11:05:19;5.33;;;4.67;;
22318;SDS011;11327;52.334;9.506;2024-02-14T11:08:42;6.08;;;4.95;;
22318;SDS011;11327;52.334;9.506;2024-02-14T11:12:03;5.30;;;4.78;;
22318;SDS011;11327;52.334;9.506;2024-02-14T11:15:26;8.03;;;6.33;;
22318;SDS011;11327;52.334;9.506;2024-02-14T11:18:48;5.62;;;4.95;;
22318;SDS011;11327;52.334;9.506;2024-02-14T11:22:10;6.10;;;5.28;;
22318;SDS011;11327;52.334;9.506;2024-02-14T11:25:35;8.00;;;6.27;;
22318;SDS011;11327;52.334;9.506;2024-02-14T11:29:01;6.70;;;5.62;;
22318;SDS011;11327;52.334;9.506;2024-02-14T11:32:22;6.55;;;5.72;;
22318;SDS011;11327;52.334;9.506;2024-02-14T11:35:42;6.58;;;5.92;;
22318;SDS011;11327;52.334;9.506;2024-02-14T11:39:04;7.28;;;5.80;;
22318;SDS011;11327;52.334;9.506;2024-02-14T11:42:28;7.25;;;5.60;;
22318;SDS011;11327;52.334;9.506;2024-02-14T11:45:48;7.62;;;6.17;;
22318;SDS011;11327;52.334;9.506;2024-02-14T11:49:10;7.47;;;6.22;;
22318;SDS011;11327;52.334;9.506;2024-02-14T11:52:32;7.28;;;5.85;;
22318;SDS011;11327;52.334;9.506;2024-02-14T11:55:55;8.05;;;6.33;;
22318;SDS011;11327;52.334;9.506;2024-02-14T11:59:16;8.50;;;6.70;;
22318;SDS011;11327;52.334;9.506;2024-02-14T12:02:38;9.40;;;7.30;;
22318;SDS011;11327;52.334;9.506;2024-02-14T12:05:59;9.63;;;7.25;;
22318;SDS011;11327;52.334;9.506;2024-02-14T12:09:20;8.00;;;7.20;;
22318;SDS011;11327;52.334;9.506;2024-02-14T12:12:44;8.98;;;7.50;;
22318;SDS011;11327;52.334;9.506;2024-02-14T12:16:05;9.58;;;7.62;;
22318;SDS011;11327;52.334;9.506;2024-02-14T12:19:27;8.25;;;7.28;;
22318;SDS011;11327;52.334;9.506;2024-02-14T12:22:52;10.85;;;8.43;;
22318;SDS011;11327;52.334;9.506;2024-02-14T12:26:11;9.80;;;8.05;;
22318;SDS011;11327;52.334;9.506;2024-02-14T12:29:34;10.78;;;8.70;;
22318;SDS011;11327;52.334;9.506;2024-02-14T12:32:58;12.07;;;8.18;;
22318;SDS011;11327;52.334;9.506;2024-02-14T12:36:21;10.32;;;8.90;;
22318;SDS011;11327;52.334;9.506;2024-02-14T12:39:42;9.53;;;8.33;;
22318;SDS011;11327;52.334;9.506;2024-02-14T12:43:03;9.53;;;8.45;;
22318;SDS011;11327;52.334;9.506;2024-02-14T12:46:26;9.98;;;8.60;;
22318;SDS011;11327;52.334;9.506;2024-02-14T12:49:47;9.65;;;8.60;;
22318;SDS011;11327;52.334;9.506;2024-02-14T12:53:09;10.60;;;8.55;;
22318;SDS011;11327;52.334;9.506;2024-02-14T12:56:30;9.80;;;8.50;;
22318;SDS011;11327;52.334;9.506;2024-02-14T12:59:51;8.50;;;7.60;;
22318;SDS011;11327;52.334;9.506;2024-02-14T13:03:12;9.78;;;7.92;;
22318;SDS011;11327;52.334;9.506;2024-02-14T13:06:33;8.37;;;7.47;;
22318;SDS011;11327;52.334;9.506;2024-02-14T13:09:54;8.15;;;6.80;;
22318;SDS011;11327;52.334;9.506;2024-02-14T13:13:15;7.70;;;7.00;;
22318;SDS011;11327;52.334;9.506;2024-02-14T13:16:36;7.62;;;6.72;;
22318;SDS011;11327;52.334;9.506;2024-02-14T13:19:56;9.70;;;7.22;;
22318;SDS011;11327;52.334;9.506;2024-02-14T13:23:19;10.45;;;7.42;;
22318;SDS011;11327;52.334;9.506;2024-02-14T13:26:40;8.10;;;7.28;;
22318;SDS011;11327;52.334;9.506;2024-02-14T13:30:01;7.78;;;6.80;;
22318;SDS011;11327;52.334;9.506;2024-02-14T13:33:22;7.83;;;5.92;;
22318;SDS011;11327;52.334;9.506;2024-02-14T13:36:43;6.20;;;5.00;;
22318;SDS011;11327;52.334;9.506;2024-02-14T13:40:05;5.58;;;5.00;;
22318;SDS011;11327;52.334;9.506;2024-02-14T13:43:28;5.20;;;4.65;;
22318;SDS011;11327;52.334;9.506;2024-02-14T13:46:49;5.60;;;4.25;;
22318;SDS011;11327;52.334;9.506;2024-02-14T13:50:10;7.60;;;5.10;;
22318;SDS011;11327;52.334;9.506;2024-02-14T13:53:33;5.30;;;4.80;;
22318;SDS011;11327;52.334;9.506;2024-02-14T13:56:54;6.78;;;5.40;;
22318;SDS011;11327;52.334;9.506;2024-02-14T14:00:15;5.80;;;5.30;;
22318;SDS011;11327;52.334;9.506;2024-02-14T14:03:35;6.75;;;5.60;;
22318;SDS011;11327;52.334;9.506;2024-02-14T14:06:57;6.12;;;5.40;;
22318;SDS011;11327;52.334;9.506;2024-02-14T14:10:18;7.58;;;5.95;;
22318;SDS011;11327;52.334;9.506;2024-02-14T14:13:39;6.05;;;5.40;;
22318;SDS011;11327;52.334;9.506;2024-02-14T14:17:00;5.83;;;5.22;;
22318;SDS011;11327;52.334;9.506;2024-02-14T14:20:20;7.92;;;5.80;;
22318;SDS011;11327;52.334;9.506;2024-02-14T14:23:41;6.70;;;5.97;;
22318;SDS011;11327;52.334;9.506;2024-02-14T14:27:02;5.72;;;5.00;;
22318;SDS011;11327;52.334;9.506;2024-02-14T14:30:23;6.08;;;5.25;;
22318;SDS011;11327;52.334;9.506;2024-02-14T14:33:44;5.72;;;5.00;;
22318;SDS011;11327;52.334;9.506;2024-02-14T14:37:05;6.08;;;4.87;;
22318;SDS011;11327;52.334;9.506;2024-02-14T14:40:26;5.75;;;4.90;;
22318;SDS011;11327;52.334;9.506;2024-02-14T14:43:47;6.87;;;5.08;;
22318;SDS011;11327;52.334;9.506;2024-02-14T14:47:09;5.80;;;4.90;;
22318;SDS011;11327;52.334;9.506;2024-02-14T14:50:31;6.10;;;5.10;;
22318;SDS011;11327;52.334;9.506;2024-02-14T14:53:52;5.85;;;5.20;;
22318;SDS011;11327;52.334;9.506;2024-02-14T14:57:13;6.62;;;5.60;;
22318;SDS011;11327;52.334;9.506;2024-02-14T15:00:35;5.87;;;5.25;;
22318;SDS011;11327;52.334;9.506;2024-02-14T15:03:56;8.80;;;6.42;;
22318;SDS011;11327;52.334;9.506;2024-02-14T15:07:16;7.20;;;6.03;;
22318;SDS011;11327;52.334;9.506;2024-02-14T15:10:39;7.67;;;6.67;;
22318;SDS011;11327;52.334;9.506;2024-02-14T15:14:00;8.50;;;6.92;;
22318;SDS011;11327;52.334;9.506;2024-02-14T15:17:21;13.22;;;9.08;;
22318;SDS011;11327;52.334;9.506;2024-02-14T15:20:42;9.35;;;8.13;;
22318;SDS011;11327;52.334;9.506;2024-02-14T15:24:03;10.28;;;9.10;;
22318;SDS011;11327;52.334;9.506;2024-02-14T15:27:25;10.72;;;7.70;;
22318;SDS011;11327;52.334;9.506;2024-02-14T15:30:47;12.45;;;9.33;;
22318;SDS011;11327;52.334;9.506;2024-02-14T15:34:26;10.00;;;8.15;;
22318;SDS011;11327;52.334;9.506;2024-02-14T15:37:47;11.00;;;8.83;;
22318;SDS011;11327;52.334;9.506;2024-02-14T15:41:10;10.80;;;9.28;;
22318;SDS011;11327;52.334;9.506;2024-02-14T15:44:30;9.85;;;8.30;;
22318;SDS011;11327;52.334;9.506;2024-02-14T15:47:51;10.72;;;8.08;;
22318;SDS011;11327;52.334;9.506;2024-02-14T15:51:12;8.28;;;7.37;;
22318;SDS011;11327;52.334;9.506;2024-02-14T15:54:33;10.90;;;8.43;;
22318;SDS011;11327;52.334;9.506;2024-02-14T15:57:54;10.03;;;7.72;;
22318;SDS011;11327;52.334;9.506;2024-02-14T16:01:15;9.73;;;8.00;;
22318;SDS011;11327;52.334;9.506;2024-02-14T16:04:37;9.28;;;7.47;;
22318;SDS011;11327;52.334;9.506;2024-02-14T16:07:58;10.93;;;8.08;;
22318;SDS011;11327;52.334;9.506;2024-02-14T16:11:19;9.75;;;7.37;;
22318;SDS011;11327;52.334;9.506;2024-02-14T16:14:41;9.38;;;7.35;;
22318;SDS011;11327;52.334;9.506;2024-02-14T16:18:04;8.33;;;6.62;;
22318;SDS011;11327;52.334;9.506;2024-02-14T16:21:25;7.83;;;6.95;;
22318;SDS011;11327;52.334;9.506;2024-02-14T16:24:46;8.25;;;6.47;;
22318;SDS011;11327;52.334;9.506;2024-02-14T16:28:08;8.05;;;6.70;;
22318;SDS011;11327;52.334;9.506;2024-02-14T16:31:29;8.68;;;6.60;;
22318;SDS011;11327;52.334;9.506;2024-02-14T16:34:50;8.78;;;7.78;;
22318;SDS011;11327;52.334;9.506;2024-02-14T16:38:11;8.58;;;6.97;;
22318;SDS011;11327;52.334;9.506;2024-02-14T16:41:32;8.43;;;6.80;;
22318;SDS011;11327;52.334;9.506;2024-02-14T16:44:53;8.63;;;7.00;;
22318;SDS011;11327;52.334;9.506;2024-02-14T16:48:14;9.33;;;6.47;;
22318;SDS011;11327;52.334;9.506;2024-02-14T16:51:34;8.00;;;7.10;;
22318;SDS011;11327;52.334;9.506;2024-02-14T16:54:55;8.25;;;7.20;;
22318;SDS011;11327;52.334;9.506;2024-02-14T16:58:16;7.58;;;6.37;;
22318;SDS011;11327;52.334;9.506;2024-02-14T17:01:37;6.80;;;5.97;;
22318;SDS011;11327;52.334;9.506;2024-02-14T17:04:58;8.88;;;5.83;;
22318;SDS011;11327;52.334;9.506;2024-02-14T17:08:19;6.97;;;5.35;;
22318;SDS011;11327;52.334;9.506;2024-02-14T17:11:39;6.83;;;5.40;;
22318;SDS011;11327;52.334;9.506;2024-02-14T17:15:00;8.88;;;5.87;;
22318;SDS011;11327;52.334;9.506;2024-02-14T17:18:22;6.87;;;5.70;;
22318;SDS011;11327;52.334;9.506;2024-02-14T17:21:42;6.35;;;5.30;;
22318;SDS011;11327;52.334;9.506;2024-02-14T17:25:04;8.55;;;5.10;;
22318;SDS011;11327;52.334;9.506;2024-02-14T17:28:25;5.45;;;4.75;;
22318;SDS011;11327;52.334;9.506;2024-02-14T17:31:46;6.37;;;4.97;;
22318;SDS011;11327;52.334;9.506;2024-02-14T17:35:08;6.33;;;5.03;;
22318;SDS011;11327;52.334;9.506;2024-02-14T17:38:29;7.45;;;5.53;;
22318;SDS011;11327;52.334;9.506;2024-02-14T17:41:51;6.80;;;5.55;;
22318;SDS011;11327;52.334;9.506;2024-02-14T17:45:12;7.40;;;5.65;;
22318;SDS011;11327;52.334;9.506;2024-02-14T17:48:33;7.17;;;6.05;;
22318;SDS011;11327;52.334;9.506;2024-02-14T17:51:55;7.05;;;6.10;;
22318;SDS011;11327;52.334;9.506;2024-02-14T17:55:18;8.28;;;7.42;;
22318;SDS011;11327;52.334;9.506;2024-02-14T17:58:39;6.15;;;5.45;;
22318;SDS011;11327;52.334;9.506;2024-02-14T18:02:00;6.75;;;5.30;;
22318;SDS011;11327;52.334;9.506;2024-02-14T18:05:21;6.05;;;4.97;;
22318;SDS011;11327;52.334;9.506;2024-02-14T18:08:42;6.42;;;4.95;;
22318;SDS011;11327;52.334;9.506;2024-02-14T18:12:04;6.37;;;4.80;;
22318;SDS011;11327;52.334;9.506;2024-02-14T18:15:26;6.15;;;4.65;;
22318;SDS011;11327;52.334;9.506;2024-02-14T18:18:47;5.10;;;4.15;;
22318;SDS011;11327;52.334;9.506;2024-02-14T18:22:07;5.83;;;4.67;;
22318;SDS011;11327;52.334;9.506;2024-02-14T18:25:29;5.08;;;4.20;;
22318;SDS011;11327;52.334;9.506;2024-02-14T18:28:50;6.45;;;4.53;;
22318;SDS011;11327;52.334;9.506;2024-02-14T18:32:10;4.78;;;4.08;;
22318;SDS011;11327;52.334;9.506;2024-02-14T18:35:31;5.53;;;3.77;;
22318;SDS011;11327;52.334;9.506;2024-02-14T18:38:52;3.85;;;3.30;;
22318;SDS011;11327;52.334;9.506;2024-02-14T18:42:13;4.22;;;3.12;;
22318;SDS011;11327;52.334;9.506;2024-02-14T18:45:34;3.25;;;2.77;;
22318;SDS011;11327;52.334;9.506;2024-02-14T18:48:54;3.62;;;2.33;;
22318;SDS011;11327;52.334;9.506;2024-02-14T18:52:16;2.45;;;1.90;;
22318;SDS011;11327;52.334;9.506;2024-02-14T18:55:37;1.45;;;1.35;;
22318;SDS011;11327;52.334;9.506;2024-02-14T18:58:58;1.92;;;1.40;;
22318;SDS011;11327;52.334;9.506;2024-02-14T19:02:18;2.00;;;1.50;;
22318;SDS011;11327;52.334;9.506;2024-02-14T19:05:39;1.90;;;1.62;;
22318;SDS011;11327;52.334;9.506;2024-02-14T19:09:03;1.67;;;1.40;;
22318;SDS011;11327;52.334;9.506;2024-02-14T19:12:24;0.93;;;0.78;;
22318;SDS011;11327;52.334;9.506;2024-02-14T19:15:45;1.07;;;0.75;;
22318;SDS011;11327;52.334;9.506;2024-02-14T19:19:06;1.50;;;0.90;;
22318;SDS011;11327;52.334;9.506;2024-02-14T19:22:26;1.32;;;0.90;;
22318;SDS011;11327;52.334;9.506;2024-02-14T19:25:47;0.90;;;0.70;;
22318;SDS011;11327;52.334;9.506;2024-02-14T19:29:10;1.22;;;0.70;;
22318;SDS011;11327;52.334;9.506;2024-02-14T19:32:31;1.00;;;0.85;;
22318;SDS011;11327;52.334;9.506;2024-02-14T19:35:57;1.00;;;0.65;;
22318;SDS011;11327;52.334;9.506;2024-02-14T19:39:18;0.70;;;0.50;;
22318;SDS011;11327;52.334;9.506;2024-02-14T19:42:38;3.60;;;0.88;;
22318;SDS011;11327;52.334;9.506;2024-02-14T19:45:59;0.85;;;0.70;;
22318;SDS011;11327;52.334;9.506;2024-02-14T19:49:22;1.65;;;0.70;;
22318;SDS011;11327;52.334;9.506;2024-02-14T19:52:42;0.72;;;0.60;;
22318;SDS011;11327;52.334;9.506;2024-02-14T19:56:04;0.85;;;0.60;;
22318;SDS011;11327;52.334;9.506;2024-02-14T19:59:25;1.10;;;0.60;;
22318;SDS011;11327;52.334;9.506;2024-02-14T20:02:46;2.35;;;0.70;;
22318;SDS011;11327;52.334;9.506;2024-02-14T20:06:06;1.32;;;0.50;;
22318;SDS011;11327;52.334;9.506;2024-02-14T20:09:27;0.90;;;0.60;;
22318;SDS011;11327;52.334;9.506;2024-02-14T20:12:50;1.17;;;1.00;;
22318;SDS011;11327;52.334;9.506;2024-02-14T20:16:10;1.40;;;1.00;;